Luverne, MN

9:41 PM CDT on July 25, 2017 (GMT -0500)
Luverne

Weather History for KLYV - January, 2014

Change the Weather History Date:

Monday, January 6, 2014

  Actual Average (KPQN) Record (KPQN)
Temperature  
Mean Temperature -12 °F -  
Max Temperature -7 °F 23 °F 44 °F (2012)
Min Temperature -16 °F 7 °F -20 °F (2014)
Degree Days  
Heating Degree Days 76    
Moisture  
Dew Point -21 °F    
Average Humidity 64    
Maximum Humidity 77    
Minimum Humidity 58    
Precipitation  
Precipitation 0.00 in - - ()
Sea Level Pressure  
Sea Level Pressure 30.31 in    
Wind  
Wind Speed 14 mph (WNW)    
Max Wind Speed 22 mph    
Max Gust Speed 26 mph    
Visibility 10 miles    
Events      
Averages and records for this station are not official NWS values.
T = Trace of Precipitation, MM = Missing Value Source: NWS Daily Summary

Daily Weather History Graph

Daily Weather History Graph

Search for Another Location

Airport or City:

Trip Planner

Search our weather history database for the weather conditions in past years. The results will help you decide how hot, cold, wet, or windy it might be!

Date:

Astronomy

Jan. 06, 2014 Rise Set
Actual Time 7:58 AM CST 5:03 PM CST
Civil Twilight 7:25 AM CST 5:36 PM CST
Nautical Twilight 6:49 AM CST 6:12 PM CST
Astronomical Twilight 6:15 AM CST 6:46 PM CST
Moon 11:02 AM CST (1/6) 11:51 PM CST (1/6)
Length of Visible Light 10h 10m
Length of Day
9h 05m
Waxing Crescent, 35% of the Moon is Illuminated
Jan 6
Waxing Crescent
Jan 7
First Quarter
Jan 15
Full
Jan 23
Last Quarter
Jan 30
New

Hourly Weather History & Observations

Time (CST) Temp. Windchill Dew Point Humidity Pressure Visibility Wind Dir Wind Speed Gust Speed Precip Events Conditions
12:14 AM -14.8 °F -38.3 °F -23.8 °F 64% 30.38 in 10.0 mi NW 15.0 mph 20.7 mph N/A   Scattered Clouds
12:34 AM -14.8 °F -36.6 °F -25.6 °F 58% 30.37 in 10.0 mi NW 12.7 mph - N/A   Scattered Clouds
12:55 AM -14.8 °F -39.8 °F -25.6 °F 58% 30.36 in 10.0 mi NW 17.3 mph 25.3 mph N/A   Scattered Clouds
1:14 AM -14.8 °F -40.5 °F -25.6 °F 58% 30.36 in 10.0 mi NW 18.4 mph - N/A   Mostly Cloudy
1:34 AM -14.8 °F -38.3 °F -25.6 °F 58% 30.36 in 10.0 mi NW 15.0 mph - N/A   Mostly Cloudy
1:55 AM -14.8 °F -37.5 °F -25.6 °F 58% 30.37 in 10.0 mi NW 13.8 mph - N/A   Mostly Cloudy
2:14 AM -14.8 °F -37.5 °F -23.8 °F 64% 30.36 in 10.0 mi NW 13.8 mph - N/A   Scattered Clouds
2:34 AM -14.8 °F -37.5 °F -23.8 °F 64% 30.37 in 7.0 mi NW 13.8 mph - N/A   Clear
2:55 AM -14.8 °F -39.8 °F -23.8 °F 64% 30.37 in 10.0 mi NW 17.3 mph - N/A   Clear
3:14 AM -14.8 °F -38.3 °F -25.6 °F 58% 30.37 in 10.0 mi NW 15.0 mph 23.0 mph N/A   Scattered Clouds
3:34 AM -14.8 °F -36.6 °F -25.6 °F 58% 30.37 in 10.0 mi NW 12.7 mph 21.9 mph N/A   Mostly Cloudy
3:54 AM -14.8 °F -37.5 °F -25.6 °F 58% 30.37 in 10.0 mi NW 13.8 mph - N/A   Scattered Clouds
4:14 AM -16.6 °F -40.6 °F -25.6 °F 64% 30.37 in 10.0 mi NW 15.0 mph - N/A   Clear
4:35 AM -16.6 °F -35.7 °F -25.6 °F 64% 30.37 in 10.0 mi NW 9.2 mph - N/A   Clear
4:54 AM -16.6 °F -35.7 °F -25.6 °F 64% 30.37 in 10.0 mi NW 9.2 mph - N/A   Scattered Clouds
5:14 AM -16.6 °F -37.9 °F -25.6 °F 64% 30.36 in 10.0 mi NW 11.5 mph - N/A   Scattered Clouds
5:34 AM -16.6 °F -35.7 °F -25.6 °F 64% 30.36 in 10.0 mi NW 9.2 mph - N/A   Scattered Clouds
5:54 AM -16.6 °F -37.9 °F -25.6 °F 64% 30.35 in 10.0 mi NW 11.5 mph - N/A   Clear
6:14 AM -16.6 °F -38.9 °F -25.6 °F 64% 30.35 in 10.0 mi NW 12.7 mph 18.4 mph N/A   Scattered Clouds
6:34 AM -16.6 °F -37.9 °F -25.6 °F 64% 30.35 in 10.0 mi NW 11.5 mph - N/A   Clear
6:55 AM -16.6 °F -38.9 °F -25.6 °F 64% 30.35 in 10.0 mi NW 12.7 mph - N/A   Clear
7:14 AM -16.6 °F -37.9 °F -25.6 °F 64% 30.35 in 10.0 mi WNW 11.5 mph 16.1 mph N/A   Clear
7:34 AM -16.6 °F -38.9 °F -25.6 °F 64% 30.35 in 10.0 mi NW 12.7 mph - N/A   Clear
7:55 AM -16.6 °F -37.9 °F -25.6 °F 64% 30.35 in 10.0 mi NW 11.5 mph 17.3 mph N/A   Clear
8:14 AM -16.6 °F -39.8 °F -25.6 °F 64% 30.36 in 10.0 mi WNW 13.8 mph - N/A   Clear
8:34 AM -16.6 °F -37.9 °F -25.6 °F 64% 30.36 in 10.0 mi NW 11.5 mph - N/A   Clear
8:55 AM -16.6 °F -37.9 °F -25.6 °F 64% 30.36 in 10.0 mi WNW 11.5 mph - N/A   Clear
9:14 AM -14.8 °F -37.5 °F -25.6 °F 58% 30.36 in 10.0 mi WNW 13.8 mph - N/A   Clear
9:34 AM -14.8 °F -36.6 °F -25.6 °F 58% 30.37 in 10.0 mi NW 12.7 mph - N/A   Clear
9:55 AM -14.8 °F -37.5 °F -25.6 °F 58% 30.37 in 10.0 mi NW 13.8 mph - N/A   Clear
10:14 AM -13.0 °F -37.5 °F -23.8 °F 59% 30.37 in 10.0 mi NW 17.3 mph 23.0 mph N/A   Clear
10:34 AM -13.0 °F -36.0 °F -23.8 °F 59% 30.37 in 10.0 mi NW 15.0 mph 23.0 mph N/A   Clear
10:54 AM -13.0 °F -36.0 °F -23.8 °F 59% 30.37 in 10.0 mi NW 15.0 mph - N/A   Clear
11:14 AM -11.2 °F -35.2 °F -22.0 °F 59% 30.36 in 10.0 mi WNW 17.3 mph - N/A   Clear
11:34 AM -11.2 °F -35.8 °F -22.0 °F 59% 30.36 in 10.0 mi NW 18.4 mph 26.5 mph N/A   Clear
11:55 AM -9.4 °F -32.8 °F -20.2 °F 59% 30.34 in 10.0 mi WNW 17.3 mph 21.9 mph N/A   Clear
12:14 PM -9.4 °F -31.4 °F -18.4 °F 65% 30.34 in 10.0 mi WNW 15.0 mph 21.9 mph N/A   Clear
12:35 PM -9.4 °F -32.8 °F -18.4 °F 65% 30.33 in 10.0 mi WNW 17.3 mph - N/A   Clear
12:54 PM -9.4 °F -32.8 °F -18.4 °F 65% 30.32 in 10.0 mi WNW 17.3 mph - N/A   Clear
1:15 PM -7.6 °F -30.5 °F -18.4 °F 59% 30.31 in 10.0 mi WNW 17.3 mph - N/A   Clear
1:34 PM -7.6 °F -31.7 °F -18.4 °F 59% 30.30 in 10.0 mi WNW 19.6 mph 25.3 mph N/A   Clear
1:54 PM -7.6 °F -32.9 °F -18.4 °F 59% 30.30 in 10.0 mi WNW 21.9 mph - N/A   Clear
2:14 PM -7.6 °F -31.1 °F -16.6 °F 65% 30.30 in 10.0 mi WNW 18.4 mph - N/A   Clear
2:35 PM -7.6 °F -32.3 °F -16.6 °F 65% 30.30 in 10.0 mi WNW 20.7 mph 25.3 mph N/A   Clear
2:54 PM -7.6 °F -31.7 °F -16.6 °F 65% 30.30 in 10.0 mi WNW 19.6 mph 25.3 mph N/A   Clear
3:14 PM -7.6 °F -31.1 °F -16.6 °F 65% 30.31 in 10.0 mi WNW 18.4 mph - N/A   Clear
3:35 PM -7.6 °F -29.1 °F -16.6 °F 65% 30.31 in 10.0 mi WNW 15.0 mph - N/A   Clear
3:54 PM -7.6 °F -29.8 °F -16.6 °F 65% 30.31 in 10.0 mi West 16.1 mph 20.7 mph N/A   Clear
4:14 PM -7.6 °F -30.5 °F -16.6 °F 65% 30.30 in 10.0 mi WNW 17.3 mph 21.9 mph N/A   Clear
4:35 PM -7.6 °F -27.5 °F -16.6 °F 65% 30.29 in 10.0 mi West 12.7 mph - N/A   Clear
4:54 PM -7.6 °F -27.5 °F -16.6 °F 65% 30.29 in 10.0 mi West 12.7 mph - N/A   Clear
5:14 PM -7.6 °F -26.6 °F -16.6 °F 65% 30.28 in 10.0 mi West 11.5 mph - N/A   Clear
5:34 PM -7.6 °F -25.7 °F -16.6 °F 65% 30.28 in 10.0 mi West 10.4 mph - N/A   Clear
5:54 PM -9.4 °F -25.6 °F -18.4 °F 65% 30.27 in 10.0 mi West 8.1 mph - N/A   Clear
6:15 PM -9.4 °F -27.9 °F -18.4 °F 65% 30.26 in 10.0 mi West 10.4 mph - N/A   Clear
6:34 PM -9.4 °F -29.8 °F -18.4 °F 65% 30.26 in 10.0 mi West 12.7 mph - N/A   Clear
6:54 PM -9.4 °F -28.9 °F -18.4 °F 65% 30.26 in 10.0 mi West 11.5 mph - N/A   Clear
7:15 PM -9.4 °F -28.9 °F -18.4 °F 65% 30.26 in 10.0 mi West 11.5 mph - N/A   Clear
7:34 PM -11.2 °F -29.0 °F -18.4 °F 70% 30.25 in 10.0 mi West 9.2 mph - N/A   Clear
7:54 PM -11.2 °F -29.0 °F -18.4 °F 70% 30.25 in 10.0 mi West 9.2 mph - N/A   Clear
8:15 PM -9.4 °F -26.8 °F -16.6 °F 71% 30.24 in 10.0 mi West 9.2 mph - N/A   Clear
8:34 PM -11.2 °F -27.8 °F -18.4 °F 70% 30.24 in 10.0 mi West 8.1 mph - N/A   Clear
8:54 PM -13.0 °F -28.6 °F -18.4 °F 77% 30.24 in 10.0 mi West 6.9 mph - N/A   Clear
9:15 PM -11.2 °F -23.0 °F -18.4 °F 70% 30.23 in 10.0 mi West 4.6 mph - N/A   Clear
9:34 PM -13.0 °F -27.0 °F -18.4 °F 77% 30.22 in 10.0 mi West 5.8 mph - N/A   Clear
9:54 PM -13.0 °F -28.6 °F -18.4 °F 77% 30.22 in 10.0 mi WSW 6.9 mph - N/A   Clear
10:15 PM -9.4 °F -22.7 °F -16.6 °F 71% 30.20 in 10.0 mi WSW 5.8 mph - N/A   Clear
10:34 PM -9.4 °F -24.3 °F -16.6 °F 71% 30.19 in 10.0 mi WSW 6.9 mph - N/A   Scattered Clouds
10:54 PM -9.4 °F -24.3 °F -16.6 °F 71% 30.20 in 10.0 mi West 6.9 mph - N/A   Scattered Clouds
11:15 PM -7.6 °F -20.6 °F -14.8 °F 71% 30.19 in 10.0 mi WSW 5.8 mph - N/A   Scattered Clouds
11:34 PM -7.6 °F -18.8 °F -14.8 °F 71% 30.19 in 10.0 mi West 4.6 mph - N/A   Clear
11:54 PM -7.6 °F - -16.6 °F 65% 30.18 in 10.0 mi Calm Calm - N/A   Scattered Clouds